Terminal Aerodrome Forecast
Issued by NWS

Home | Current Version | Previous Version | Text Only | Print | Product List | Glossary On
Versions: 1 2 3 4 5 6 7 8 9 10 11 12 13 14 15 16 17
000
FTUS45 KRIW 271100
TAFCOD
TAF
KCOD 271125Z 2712/2812 VRB04KT P6SM BCFG BKN012
      TEMPO 2712/2715 3SM BR BKN005
     FM271800 04006KT P6SM SCT050
     FM280000 VRB05KT P6SM SKC
      AMD LTD TO CLD VIS AND WIND=

USA.gov is the U.S. government's official web portal to all federal, state and local government web resources and services.